Time;durP1;ratioP1;P1;durP2;ratioP2;P2;SDS_P1;SDS_P2;PMS_P1;PMS_P2;Temp;Humidity;BMP_temperature;BMP_pressure;BME280_temperature;BME280_humidity;BME280_pressure;Samples;Min_cycle;Max_cycle;Signal;HPM_P1;HPM_P2
2022/02/07 00:00:46;;;;;;;;;;;3.10;99.90;;;;;;5094776;28;19908;-70
2022/02/07 00:05:41;;;;;;;;;;;3.10;99.90;;;;;;5102085;28;19908;-72
2022/02/07 00:08:09;;;;;;;;;;;3.20;99.90;;;;;;5101994;28;19923;-72
2022/02/07 00:10:37;;;;;;;;;;;3.20;99.90;;;;;;5084954;28;19908;-72
2022/02/07 00:13:02;;;;;;;;;;;3.20;99.90;;;;;;5100647;28;20219;-72
2022/02/07 00:15:28;;;;;;;;;;;3.20;99.90;;;;;;5082548;28;19908;-72
2022/02/07 00:17:54;;;;;;;;;;;3.20;99.90;;;;;;5081670;28;19943;-71
2022/02/07 00:20:22;;;;;;;;;;;3.20;99.90;;;;;;5082789;28;20203;-71
2022/02/07 00:22:48;;;;;;;;;;;3.20;99.90;;;;;;5081358;28;19916;-71
2022/02/07 00:25:14;;;;;;;;;;;3.20;99.90;;;;;;5081558;28;19983;-71
2022/02/07 00:27:40;;;;;;;;;;;3.20;99.90;;;;;;5082599;28;19912;-72
2022/02/07 00:30:08;;;;;;;;;;;3.30;99.90;;;;;;5081345;28;19981;-72
2022/02/07 00:32:33;;;;;;;;;;;3.30;99.90;;;;;;5081293;28;19912;-71
2022/02/07 00:34:59;;;;;;;;;;;3.30;99.90;;;;;;5081597;28;20355;-71
2022/02/07 00:37:28;;;;;;;;;;;3.30;99.80;;;;;;5082448;28;19916;-71
2022/02/07 00:40:13;;;;;;;;;;;3.30;99.70;;;;;;5081367;28;19916;-71
2022/02/07 00:45:41;;;;;;;;;;;3.40;99.40;;;;;;5066387;28;19939;-72
2022/02/07 00:48:08;;;;;;;;;;;3.40;99.50;;;;;;5081393;28;19908;-71
2022/02/07 00:50:34;;;;;;;;;;;3.40;99.60;;;;;;5081173;28;19983;-71
2022/02/07 00:53:00;;;;;;;;;;;3.50;99.60;;;;;;5082534;28;20265;-70
2022/02/07 00:55:26;;;;;;;;;;;3.50;99.40;;;;;;5082540;28;19913;-70
2022/02/07 00:57:52;;;;;;;;;;;3.40;99.60;;;;;;5082465;28;20007;-70
2022/02/07 01:00:18;;;;;;;;;;;3.50;99.00;;;;;;5081228;28;19924;-71
2022/02/07 01:02:44;;;;;;;;;;;3.50;99.10;;;;;;5082138;28;19976;-70
2022/02/07 01:05:10;;;;;;;;;;;3.50;99.20;;;;;;5082671;28;19909;-71
2022/02/07 01:07:35;;;;;;;;;;;3.50;99.20;;;;;;5081345;28;20226;-71
2022/02/07 01:10:01;;;;;;;;;;;3.50;99.00;;;;;;5082410;28;20231;-71
2022/02/07 01:51:07;;;;;;;;;;;3.60;97.60;;;;;;5085550;28;20111;-73
2022/02/07 01:54:13;;;;;;;;;;;3.50;97.90;;;;;;5071923;28;19951;-73
2022/02/07 01:55:56;;;;;;;;;;;3.60;97.10;;;;;;5080525;28;19935;-72
2022/02/07 01:58:22;;;;;;;;;;;3.60;96.80;;;;;;5084313;28;19916;-72
2022/02/07 02:00:48;;;;;;;;;;;3.60;97.30;;;;;;5083470;28;20030;-71
2022/02/07 02:03:13;;;;;;;;;;;3.60;97.30;;;;;;5084209;28;19946;-71
2022/02/07 02:05:39;;;;;;;;;;;3.70;96.30;;;;;;5085537;28;19915;-73
2022/02/07 02:08:09;;;;;;;;;;;3.70;96.50;;;;;;5085165;28;19908;-73
2022/02/07 02:10:36;;;;;;;;;;;3.70;96.00;;;;;;5085044;28;20207;-73
2022/02/07 02:13:10;;;;;;;;;;;3.70;96.20;;;;;;5083851;28;19916;-71
2022/02/07 02:47:23;;;;;;;;;;;3.70;94.60;;;;;;5042193;28;19923;-76
2022/02/07 02:50:02;;;;;;;;;;;3.70;94.60;;;;;;5042114;28;19909;-76
2022/02/07 02:52:28;;;;;;;;;;;3.60;94.90;;;;;;5020227;28;19929;-76
2022/02/07 02:54:54;;;;;;;;;;;3.60;94.70;;;;;;5025445;28;19947;-76
2022/02/07 02:57:20;;;;;;;;;;;3.60;94.70;;;;;;5043123;28;20164;-76
2022/02/07 02:59:45;;;;;;;;;;;3.60;94.50;;;;;;5025366;28;19909;-76
2022/02/07 03:02:11;;;;;;;;;;;3.60;94.40;;;;;;5042848;28;19923;-78
2022/02/07 03:04:37;;;;;;;;;;;3.60;94.40;;;;;;5021739;28;19920;-77
2022/02/07 03:07:03;;;;;;;;;;;3.60;94.00;;;;;;5029416;28;19909;-77
2022/02/07 03:09:29;;;;;;;;;;;3.60;94.20;;;;;;5025200;28;19916;-77
2022/02/07 03:11:55;;;;;;;;;;;3.60;94.10;;;;;;5024855;28;20256;-77
2022/02/07 03:14:34;;;;;;;;;;;3.60;93.60;;;;;;5008279;28;19993;-77
2022/02/07 03:17:00;;;;;;;;;;;3.50;93.60;;;;;;5026984;28;20004;-77
2022/02/07 03:19:25;;;;;;;;;;;3.60;93.50;;;;;;5025091;28;20141;-77
2022/02/07 03:21:51;;;;;;;;;;;3.60;93.70;;;;;;5024644;28;19917;-78
2022/02/07 03:24:17;;;;;;;;;;;3.60;93.60;;;;;;5024731;28;19917;-77
2022/02/07 03:26:43;;;;;;;;;;;3.60;93.70;;;;;;5024653;28;20093;-78
2022/02/07 03:29:12;;;;;;;;;;;3.50;94.40;;;;;;5037651;28;19932;-78
2022/02/07 03:31:38;;;;;;;;;;;3.40;95.20;;;;;;5024455;28;19913;-77
2022/02/07 03:34:04;;;;;;;;;;;3.30;95.40;;;;;;5041366;28;19928;-77
2022/02/07 03:36:31;;;;;;;;;;;3.20;95.80;;;;;;5023661;28;19909;-77
2022/02/07 03:38:57;;;;;;;;;;;3.10;96.30;;;;;;5040835;28;19920;-77
2022/02/07 03:41:23;;;;;;;;;;;3.00;96.70;;;;;;5024316;28;20116;-78
2022/02/07 03:43:48;;;;;;;;;;;2.90;97.10;;;;;;5041028;28;19943;-77
2022/02/07 03:46:14;;;;;;;;;;;2.90;96.80;;;;;;5021447;28;20196;-78
2022/02/07 03:48:40;;;;;;;;;;;2.90;97.00;;;;;;5040922;28;20200;-76
2022/02/07 03:51:05;;;;;;;;;;;2.80;96.80;;;;;;5041942;28;20022;-76
2022/02/07 03:53:31;;;;;;;;;;;2.80;97.20;;;;;;5041847;28;19921;-79
2022/02/07 03:55:57;;;;;;;;;;;2.80;97.00;;;;;;5024611;28;19909;-77
2022/02/07 03:58:22;;;;;;;;;;;2.70;97.10;;;;;;5041038;28;19995;-79
2022/02/07 04:00:49;;;;;;;;;;;2.70;97.50;;;;;;5024314;28;19913;-78
2022/02/07 04:03:16;;;;;;;;;;;2.70;97.00;;;;;;5040805;28;19968;-78
2022/02/07 04:08:09;;;;;;;;;;;2.60;96.40;;;;;;5040514;28;19919;-78
2022/02/07 04:10:42;;;;;;;;;;;2.60;95.80;;;;;;5024284;28;19973;-76
2022/02/07 04:13:10;;;;;;;;;;;2.50;96.00;;;;;;5040593;28;19920;-76
2022/02/07 04:15:36;;;;;;;;;;;2.50;95.70;;;;;;5040987;28;19917;-76
2022/02/07 04:18:06;;;;;;;;;;;2.40;95.60;;;;;;5007622;28;19909;-76
2022/02/07 04:20:32;;;;;;;;;;;2.40;96.00;;;;;;5024451;28;20138;-78
2022/02/07 04:22:58;;;;;;;;;;;2.40;95.50;;;;;;5007426;28;19916;-77
2022/02/07 04:25:23;;;;;;;;;;;2.40;95.70;;;;;;5024022;28;19974;-75
2022/02/07 04:27:49;;;;;;;;;;;2.30;95.60;;;;;;5041621;28;19909;-75
2022/02/07 04:30:15;;;;;;;;;;;2.30;95.50;;;;;;5023628;28;19974;-76
2022/02/07 04:32:40;;;;;;;;;;;2.40;94.40;;;;;;5023601;28;19972;-76
2022/02/07 04:35:06;;;;;;;;;;;2.40;94.40;;;;;;5024015;28;19984;-76
2022/02/07 04:37:32;;;;;;;;;;;2.40;94.70;;;;;;5023684;28;19955;-75
2022/02/07 04:39:58;;;;;;;;;;;2.50;94.50;;;;;;5006594;28;19929;-75
2022/02/07 04:42:26;;;;;;;;;;;2.50;93.90;;;;;;5023384;28;19909;-75
2022/02/07 04:45:11;;;;;;;;;;;2.50;94.30;;;;;;5024128;28;19956;-75
2022/02/07 04:58:08;;;;;;;;;;;2.50;95.10;;;;;;5023534;28;19972;-76
2022/02/07 05:00:45;;;;;;;;;;;2.60;94.80;;;;;;5024714;28;19976;-75
2022/02/07 05:16:16;;;;;;;;;;;2.50;95.40;;;;;;5011243;28;20258;-76
2022/02/07 05:18:42;;;;;;;;;;;2.60;95.20;;;;;;5024854;28;19971;-78
2022/02/07 05:21:07;;;;;;;;;;;2.60;95.30;;;;;;5023887;28;20119;-79
2022/02/07 05:23:33;;;;;;;;;;;2.60;95.50;;;;;;5041104;28;19909;-80
2022/02/07 05:25:59;;;;;;;;;;;2.50;95.50;;;;;;5023329;28;20089;-77
2022/02/07 05:28:24;;;;;;;;;;;2.60;95.10;;;;;;5023261;28;19944;-77
2022/02/07 05:30:50;;;;;;;;;;;2.50;95.30;;;;;;5006332;28;19980;-77
2022/02/07 05:33:16;;;;;;;;;;;2.50;95.30;;;;;;5006724;28;19981;-78
2022/02/07 05:35:41;;;;;;;;;;;2.50;95.10;;;;;;5040820;28;19917;-79
2022/02/07 05:38:09;;;;;;;;;;;2.50;94.50;;;;;;5023436;28;19913;-77
2022/02/07 05:40:41;;;;;;;;;;;2.50;94.90;;;;;;5023225;28;19909;-78
2022/02/07 05:43:10;;;;;;;;;;;2.50;94.60;;;;;;5024207;28;19924;-77
2022/02/07 05:45:36;;;;;;;;;;;2.50;94.70;;;;;;5023309;28;19980;-77
2022/02/07 05:48:02;;;;;;;;;;;2.60;94.50;;;;;;5006844;28;20012;-77
2022/02/07 05:50:27;;;;;;;;;;;2.50;94.40;;;;;;4990273;28;20460;-78
2022/02/07 05:52:53;;;;;;;;;;;2.50;94.10;;;;;;5006595;28;19917;-77
2022/02/07 05:55:19;;;;;;;;;;;2.50;94.10;;;;;;5023025;28;19947;-78
2022/02/07 05:57:44;;;;;;;;;;;2.50;94.20;;;;;;5040677;28;20160;-78
2022/02/07 06:00:10;;;;;;;;;;;2.50;93.80;;;;;;5008570;28;20220;-78
2022/02/07 06:02:36;;;;;;;;;;;2.50;93.90;;;;;;5043850;28;19951;-79
2022/02/07 06:05:02;;;;;;;;;;;2.50;94.00;;;;;;5026339;28;19909;-76
2022/02/07 06:07:27;;;;;;;;;;;2.60;94.10;;;;;;5026235;28;19992;-77
2022/02/07 06:09:53;;;;;;;;;;;2.60;93.90;;;;;;5044006;28;19913;-77
2022/02/07 06:12:19;;;;;;;;;;;2.60;93.80;;;;;;5025799;28;19913;-77
2022/02/07 06:14:45;;;;;;;;;;;2.60;93.90;;;;;;5025563;28;20259;-74
2022/02/07 06:17:11;;;;;;;;;;;2.60;93.90;;;;;;5009608;28;19909;-76
2022/02/07 06:19:37;;;;;;;;;;;2.60;93.90;;;;;;5026308;28;19990;-75
2022/02/07 06:22:03;;;;;;;;;;;2.60;93.80;;;;;;5025920;28;19915;-75
2022/02/07 06:24:29;;;;;;;;;;;2.60;93.70;;;;;;5000696;28;20181;-75
2022/02/07 06:26:55;;;;;;;;;;;2.60;93.80;;;;;;5026626;28;19916;-75
2022/02/07 06:29:20;;;;;;;;;;;2.60;93.60;;;;;;5006429;28;19946;-75
2022/02/07 06:31:46;;;;;;;;;;;2.60;93.60;;;;;;5006202;28;19992;-76
2022/02/07 06:34:12;;;;;;;;;;;2.70;93.70;;;;;;5006224;28;19919;-75
2022/02/07 06:36:37;;;;;;;;;;;2.60;93.60;;;;;;5005291;28;19989;-75
2022/02/07 06:39:03;;;;;;;;;;;2.70;93.30;;;;;;5009134;28;20097;-75
2022/02/07 06:41:29;;;;;;;;;;;2.60;94.00;;;;;;5013416;28;19922;-75
2022/02/07 06:43:55;;;;;;;;;;;2.70;94.10;;;;;;4998724;28;19909;-74
2022/02/07 06:46:21;;;;;;;;;;;2.70;94.20;;;;;;5020362;28;19962;-75
2022/02/07 06:48:46;;;;;;;;;;;2.70;93.80;;;;;;5024914;28;19920;-75
2022/02/07 06:51:12;;;;;;;;;;;2.70;93.40;;;;;;5025432;28;19909;-74
2022/02/07 06:53:38;;;;;;;;;;;2.60;93.60;;;;;;5009239;28;19956;-73
2022/02/07 06:56:04;;;;;;;;;;;2.70;93.80;;;;;;5025362;28;19909;-73
2022/02/07 06:58:30;;;;;;;;;;;2.60;93.70;;;;;;5043192;28;19916;-73
2022/02/07 07:00:56;;;;;;;;;;;2.70;93.70;;;;;;5024871;28;19909;-73
2022/02/07 07:03:22;;;;;;;;;;;2.70;93.90;;;;;;5025192;28;19917;-73
2022/02/07 07:05:51;;;;;;;;;;;2.70;93.70;;;;;;5042819;28;20188;-73
2022/02/07 07:08:17;;;;;;;;;;;2.70;93.40;;;;;;5008983;28;19917;-73
2022/02/07 07:10:44;;;;;;;;;;;2.70;93.70;;;;;;5024441;28;20118;-74
2022/02/07 07:13:14;;;;;;;;;;;2.70;94.00;;;;;;5042618;28;20192;-73
2022/02/07 07:15:42;;;;;;;;;;;2.70;94.00;;;;;;5023962;28;19910;-74
2022/02/07 07:18:08;;;;;;;;;;;2.70;93.90;;;;;;5025586;28;19909;-75
2022/02/07 07:20:35;;;;;;;;;;;2.80;93.70;;;;;;5008753;28;19928;-74
2022/02/07 07:23:04;;;;;;;;;;;2.70;93.70;;;;;;5008943;28;19971;-74
2022/02/07 07:25:30;;;;;;;;;;;2.80;93.30;;;;;;5043102;28;19988;-74
2022/02/07 07:30:28;;;;;;;;;;;2.80;93.50;;;;;;5025037;28;19909;-74
2022/02/07 07:32:58;;;;;;;;;;;2.80;93.90;;;;;;5025102;28;19932;-74
2022/02/07 07:35:24;;;;;;;;;;;2.90;93.40;;;;;;5042513;28;19909;-73
2022/02/07 07:37:50;;;;;;;;;;;3.00;93.00;;;;;;5024393;28;19980;-74
2022/02/07 07:40:15;;;;;;;;;;;2.90;93.10;;;;;;5042339;28;19909;-73
2022/02/07 07:42:44;;;;;;;;;;;3.00;93.20;;;;;;5041971;28;19917;-73
2022/02/07 07:45:11;;;;;;;;;;;3.00;93.10;;;;;;5041774;28;20107;-73
2022/02/07 07:47:40;;;;;;;;;;;3.00;93.10;;;;;;5042026;28;19924;-73
2022/02/07 07:50:15;;;;;;;;;;;3.00;93.00;;;;;;5008994;28;19994;-73
2022/02/07 08:01:15;;;;;;;;;;;3.00;92.60;;;;;;5042312;28;20216;-73
2022/02/07 08:03:43;;;;;;;;;;;3.00;93.20;;;;;;5026819;28;19916;-74
2022/02/07 08:06:17;;;;;;;;;;;3.00;92.80;;;;;;5024921;28;19916;-73
2022/02/07 08:11:27;;;;;;;;;;;3.20;92.60;;;;;;5041525;28;19956;-73
2022/02/07 08:13:54;;;;;;;;;;;3.20;92.50;;;;;;5023723;28;20104;-73
2022/02/07 08:16:20;;;;;;;;;;;3.20;92.70;;;;;;5037927;28;20249;-74
2022/02/07 08:18:46;;;;;;;;;;;3.20;92.50;;;;;;5017643;28;19975;-73
2022/02/07 08:21:11;;;;;;;;;;;3.20;92.40;;;;;;5041193;28;19917;-74
2022/02/07 08:23:39;;;;;;;;;;;3.20;92.60;;;;;;5041125;28;19920;-73
2022/02/07 08:26:05;;;;;;;;;;;3.30;92.90;;;;;;5041603;28;19909;-74
2022/02/07 08:28:31;;;;;;;;;;;3.20;92.70;;;;;;5040415;28;19915;-73
2022/02/07 08:30:56;;;;;;;;;;;3.30;92.40;;;;;;5041215;28;19917;-73
2022/02/07 08:33:22;;;;;;;;;;;3.30;92.40;;;;;;5041563;28;19928;-73
2022/02/07 08:35:48;;;;;;;;;;;3.30;92.40;;;;;;5024048;28;19909;-73
2022/02/07 08:38:15;;;;;;;;;;;3.40;92.50;;;;;;5023904;28;19913;-73
2022/02/07 08:40:41;;;;;;;;;;;3.40;92.50;;;;;;5024064;28;20282;-73
2022/02/07 08:43:07;;;;;;;;;;;3.50;92.60;;;;;;4991567;28;19921;-73
2022/02/07 08:45:32;;;;;;;;;;;3.60;92.20;;;;;;5024345;28;20085;-75
2022/02/07 08:47:58;;;;;;;;;;;3.70;92.30;;;;;;5041625;28;19909;-74
2022/02/07 08:50:27;;;;;;;;;;;3.70;91.90;;;;;;5023948;28;20153;-74
2022/02/07 08:52:55;;;;;;;;;;;3.80;92.10;;;;;;5041260;28;19929;-73
2022/02/07 08:55:34;;;;;;;;;;;3.80;91.70;;;;;;5023699;28;19921;-74
2022/02/07 08:58:13;;;;;;;;;;;3.90;91.40;;;;;;5055375;28;19917;-73
2022/02/07 09:00:54;;;;;;;;;;;4.00;91.50;;;;;;5010890;28;19913;-73
2022/02/07 09:08:50;;;;;;;;;;;4.00;91.40;;;;;;5014214;28;19910;-73
2022/02/07 09:11:16;;;;;;;;;;;4.00;91.20;;;;;;5018029;28;20175;-74
2022/02/07 09:13:45;;;;;;;;;;;3.80;91.70;;;;;;5023300;28;19913;-73
2022/02/07 09:18:39;;;;;;;;;;;3.80;91.90;;;;;;5020521;28;20191;-73
2022/02/07 09:21:06;;;;;;;;;;;3.90;91.90;;;;;;5023348;28;19916;-73
2022/02/07 09:23:32;;;;;;;;;;;3.90;91.90;;;;;;5023733;28;19975;-73
2022/02/07 09:25:58;;;;;;;;;;;4.00;91.60;;;;;;5023420;28;20196;-74
2022/02/07 09:28:24;;;;;;;;;;;4.10;91.50;;;;;;5039843;28;19909;-74
2022/02/07 09:30:50;;;;;;;;;;;4.20;91.50;;;;;;5022882;28;19916;-73
2022/02/07 09:33:17;;;;;;;;;;;4.40;91.40;;;;;;5007995;28;19917;-73
2022/02/07 09:35:43;;;;;;;;;;;4.50;90.50;;;;;;5027227;28;19973;-74
2022/02/07 09:38:09;;;;;;;;;;;4.70;90.50;;;;;;5044670;28;19921;-74
2022/02/07 09:40:35;;;;;;;;;;;4.70;90.30;;;;;;5010311;28;19967;-73
2022/02/07 09:43:01;;;;;;;;;;;4.60;90.40;;;;;;5044775;28;19908;-74
2022/02/07 09:47:57;;;;;;;;;;;4.60;90.00;;;;;;5027805;28;19917;-73
2022/02/07 09:50:23;;;;;;;;;;;4.60;90.40;;;;;;5027058;28;19913;-74
2022/02/07 09:52:49;;;;;;;;;;;4.80;90.00;;;;;;5026739;28;19980;-74
2022/02/07 09:55:14;;;;;;;;;;;4.80;90.00;;;;;;5026973;28;19913;-74
2022/02/07 09:57:40;;;;;;;;;;;4.90;89.70;;;;;;5044532;28;19952;-74
2022/02/07 10:00:08;;;;;;;;;;;4.80;88.90;;;;;;5044036;28;19994;-74
2022/02/07 10:02:44;;;;;;;;;;;4.80;89.70;;;;;;5044181;28;19988;-74
2022/02/07 10:05:23;;;;;;;;;;;4.90;89.10;;;;;;5013358;28;19916;-75
2022/02/07 10:07:59;;;;;;;;;;;4.80;90.00;;;;;;5010763;28;19923;-74
2022/02/07 10:11:08;;;;;;;;;;;4.70;90.30;;;;;;5011263;28;19931;-74
2022/02/07 10:13:38;;;;;;;;;;;4.80;89.70;;;;;;5027050;28;19921;-74
2022/02/07 10:16:36;;;;;;;;;;;4.90;90.20;;;;;;5043241;28;19909;-74
2022/02/07 10:44:45;;;;;;;;;;;6.40;83.30;;;;;;5026814;28;19909;-73
2022/02/07 10:50:12;;;;;;;;;;;5.90;83.70;;;;;;5043529;28;19909;-73
2022/02/07 10:52:50;;;;;;;;;;;5.80;84.40;;;;;;5043010;28;19914;-72
2022/02/07 10:55:33;;;;;;;;;;;5.70;84.80;;;;;;5025326;28;20230;-73
2022/02/07 10:58:00;;;;;;;;;;;5.70;84.90;;;;;;5026126;28;20085;-73
2022/02/07 11:00:38;;;;;;;;;;;5.60;86.00;;;;;;5025264;28;20292;-72
2022/02/07 11:03:11;;;;;;;;;;;5.60;86.90;;;;;;5026960;28;19965;-72
2022/02/07 11:05:50;;;;;;;;;;;5.60;88.10;;;;;;5026683;28;19996;-73
2022/02/07 11:08:24;;;;;;;;;;;6.00;85.30;;;;;;5027149;28;20107;-73
2022/02/07 11:19:01;;;;;;;;;;;5.50;90.10;;;;;;5042854;28;19917;-72
2022/02/07 11:21:37;;;;;;;;;;;5.50;90.30;;;;;;5026805;28;19993;-72
2022/02/07 11:24:31;;;;;;;;;;;5.50;90.20;;;;;;5011846;28;20008;-73
2022/02/07 11:27:35;;;;;;;;;;;5.30;90.40;;;;;;5042498;28;20247;-72
2022/02/07 11:30:07;;;;;;;;;;;5.30;90.80;;;;;;4924038;29;19919;-72
2022/02/07 11:32:43;;;;;;;;;;;5.20;91.00;;;;;;4992891;28;19919;-73
2022/02/07 11:35:19;;;;;;;;;;;5.10;91.00;;;;;;5042562;28;20124;-72
2022/02/07 11:38:10;;;;;;;;;;;5.10;91.20;;;;;;5042067;28;20116;-72
2022/02/07 11:40:41;;;;;;;;;;;5.10;90.70;;;;;;5010936;28;19923;-73
2022/02/07 11:43:14;;;;;;;;;;;5.70;90.60;;;;;;5024536;28;19977;-72
2022/02/07 11:46:08;;;;;;;;;;;5.90;87.10;;;;;;5042324;28;19916;-73
2022/02/07 11:48:55;;;;;;;;;;;6.00;87.70;;;;;;5026439;28;19909;-73
2022/02/07 11:51:31;;;;;;;;;;;6.10;84.00;;;;;;5041941;28;19909;-72
2022/02/07 11:53:58;;;;;;;;;;;6.10;83.70;;;;;;5041968;28;19928;-73
2022/02/07 11:56:33;;;;;;;;;;;6.00;83.70;;;;;;5041585;28;19909;-73
2022/02/07 11:59:02;;;;;;;;;;;5.90;84.60;;;;;;5041654;28;20247;-73
2022/02/07 12:01:45;;;;;;;;;;;6.10;84.30;;;;;;5041790;28;20117;-73
2022/02/07 12:04:11;;;;;;;;;;;6.00;83.60;;;;;;5042071;28;19973;-73
2022/02/07 12:06:37;;;;;;;;;;;5.90;85.30;;;;;;5007852;28;20103;-73
2022/02/07 12:09:03;;;;;;;;;;;5.70;85.50;;;;;;5041867;28;19909;-73
2022/02/07 12:11:45;;;;;;;;;;;5.70;86.10;;;;;;5007916;28;20215;-73
2022/02/07 12:14:33;;;;;;;;;;;5.50;86.70;;;;;;5023041;28;19913;-73
2022/02/07 12:16:59;;;;;;;;;;;5.50;88.00;;;;;;5024019;28;20115;-73
2022/02/07 12:19:36;;;;;;;;;;;5.50;86.80;;;;;;5024249;28;20261;-73
2022/02/07 12:22:15;;;;;;;;;;;5.60;87.00;;;;;;5023842;28;19963;-73
2022/02/07 12:24:58;;;;;;;;;;;6.10;85.60;;;;;;5024217;28;19984;-73
2022/02/07 12:27:24;;;;;;;;;;;6.50;81.60;;;;;;5008028;28;19916;-74
2022/02/07 12:30:16;;;;;;;;;;;6.70;81.50;;;;;;5041292;28;19909;-74
2022/02/07 12:32:43;;;;;;;;;;;6.90;79.20;;;;;;5027124;28;20120;-73
2022/02/07 12:35:09;;;;;;;;;;;6.90;79.70;;;;;;5007332;28;19909;-74
2022/02/07 12:37:39;;;;;;;;;;;6.80;79.80;;;;;;5023813;28;19913;-73
2022/02/07 12:40:06;;;;;;;;;;;6.50;81.40;;;;;;5023760;28;19974;-73
2022/02/07 12:42:32;;;;;;;;;;;6.60;83.30;;;;;;5041204;28;19917;-73
2022/02/07 12:45:00;;;;;;;;;;;6.20;87.20;;;;;;5023407;28;20224;-74
2022/02/07 12:47:26;;;;;;;;;;;6.00;88.80;;;;;;5041254;28;19962;-74
2022/02/07 12:49:55;;;;;;;;;;;6.00;90.10;;;;;;5041422;28;19945;-74
2022/02/07 12:52:33;;;;;;;;;;;7.40;86.30;;;;;;5040944;28;20000;-74
2022/02/07 12:54:59;;;;;;;;;;;8.70;79.50;;;;;;5023876;28;19913;-74
2022/02/07 12:57:26;;;;;;;;;;;9.80;70.60;;;;;;5023601;28;19909;-73
2022/02/07 12:59:53;;;;;;;;;;;10.90;66.80;;;;;;5023683;28;19916;-74
2022/02/07 13:02:28;;;;;;;;;;;12.70;59.70;;;;;;5023248;28;19909;-74
2022/02/07 13:04:54;;;;;;;;;;;13.80;53.90;;;;;;5007322;28;20155;-74
2022/02/07 13:07:21;;;;;;;;;;;14.30;50.30;;;;;;5023517;28;19980;-74
2022/02/07 13:09:53;;;;;;;;;;;13.20;52.50;;;;;;5044623;28;19935;-74
2022/02/07 13:12:35;;;;;;;;;;;11.50;55.10;;;;;;5044880;28;19913;-74
2022/02/07 13:15:01;;;;;;;;;;;10.10;60.10;;;;;;5026930;28;20184;-74
2022/02/07 13:17:28;;;;;;;;;;;9.40;63.20;;;;;;5007653;28;19967;-74
2022/02/07 13:19:54;;;;;;;;;;;8.70;68.20;;;;;;5025261;28;19917;-74
2022/02/07 13:22:22;;;;;;;;;;;9.20;67.30;;;;;;5023692;28;19910;-74
2022/02/07 13:24:49;;;;;;;;;;;10.10;61.70;;;;;;5016268;28;19913;-74
2022/02/07 13:27:16;;;;;;;;;;;11.50;55.80;;;;;;5013545;28;19909;-74
2022/02/07 13:29:54;;;;;;;;;;;11.70;53.40;;;;;;5027065;28;19955;-74
2022/02/07 13:32:28;;;;;;;;;;;13.30;50.50;;;;;;5027321;28;19913;-74
2022/02/07 13:35:09;;;;;;;;;;;16.00;46.60;;;;;;5045036;28;19951;-74
2022/02/07 13:37:38;;;;;;;;;;;16.90;40.80;;;;;;5027334;28;19935;-75
2022/02/07 13:40:24;;;;;;;;;;;18.20;38.70;;;;;;5027162;28;19909;-75
2022/02/07 13:42:50;;;;;;;;;;;18.50;39.50;;;;;;5044359;28;19952;-75
2022/02/07 13:45:23;;;;;;;;;;;18.50;37.20;;;;;;5044742;28;19917;-75
2022/02/07 13:47:50;;;;;;;;;;;18.40;37.50;;;;;;5027486;28;19909;-73
2022/02/07 13:50:17;;;;;;;;;;;18.10;38.90;;;;;;5027255;28;19917;-73
2022/02/07 13:52:49;;;;;;;;;;;19.40;36.90;;;;;;5044293;28;19913;-74
2022/02/07 13:55:23;;;;;;;;;;;18.60;37.80;;;;;;5010840;28;19909;-74
2022/02/07 13:57:48;;;;;;;;;;;17.60;39.30;;;;;;5026704;28;19917;-74
2022/02/07 14:00:15;;;;;;;;;;;15.30;43.20;;;;;;5044242;28;19909;-73
2022/02/07 14:02:41;;;;;;;;;;;13.90;47.20;;;;;;5044467;28;19921;-74
2022/02/07 14:05:07;;;;;;;;;;;12.20;52.20;;;;;;5044448;28;19967;-73
2022/02/07 14:07:54;;;;;;;;;;;11.20;56.30;;;;;;5026649;28;19916;-74
2022/02/07 14:10:21;;;;;;;;;;;10.70;58.90;;;;;;5027625;28;19909;-74
2022/02/07 14:12:46;;;;;;;;;;;10.00;59.80;;;;;;5026205;28;19963;-74
2022/02/07 14:15:12;;;;;;;;;;;9.60;61.10;;;;;;5043431;28;19913;-74
2022/02/07 14:17:43;;;;;;;;;;;9.50;61.60;;;;;;5025888;28;19909;-74
2022/02/07 14:20:12;;;;;;;;;;;9.20;61.50;;;;;;5042986;28;20115;-73
2022/02/07 14:22:37;;;;;;;;;;;8.90;63.40;;;;;;5010428;28;19951;-74
2022/02/07 14:25:04;;;;;;;;;;;8.70;66.50;;;;;;5026176;28;19909;-74
2022/02/07 14:27:31;;;;;;;;;;;8.20;65.80;;;;;;5026202;28;20117;-73
2022/02/07 14:29:57;;;;;;;;;;;7.80;66.50;;;;;;5026033;28;20123;-73
2022/02/07 14:32:23;;;;;;;;;;;7.50;69.50;;;;;;5039994;28;19918;-74
2022/02/07 14:34:48;;;;;;;;;;;7.30;71.80;;;;;;5038216;28;19996;-73
2022/02/07 14:37:14;;;;;;;;;;;7.10;73.20;;;;;;5043599;28;19921;-73
2022/02/07 14:39:40;;;;;;;;;;;6.90;75.30;;;;;;5043901;28;19947;-73
2022/02/07 14:42:07;;;;;;;;;;;6.70;76.10;;;;;;5043426;28;19963;-74
2022/02/07 14:44:42;;;;;;;;;;;6.50;76.90;;;;;;5026135;28;19916;-73
2022/02/07 14:47:14;;;;;;;;;;;6.40;77.40;;;;;;5026992;28;20023;-73
2022/02/07 14:49:40;;;;;;;;;;;6.30;78.00;;;;;;5019475;28;19919;-73
2022/02/07 14:52:05;;;;;;;;;;;6.30;78.90;;;;;;5015529;28;19937;-73
2022/02/07 14:54:32;;;;;;;;;;;6.10;79.40;;;;;;5031845;28;19956;-74
2022/02/07 14:56:59;;;;;;;;;;;6.00;80.70;;;;;;5039609;28;19909;-73
2022/02/07 14:59:25;;;;;;;;;;;6.00;80.70;;;;;;5025791;28;19931;-73
2022/02/07 15:01:52;;;;;;;;;;;6.00;80.90;;;;;;5008880;28;20254;-73
2022/02/07 15:04:21;;;;;;;;;;;5.90;82.10;;;;;;5025762;28;20204;-73
2022/02/07 15:06:47;;;;;;;;;;;5.90;82.60;;;;;;5058170;28;19921;-74
2022/02/07 15:09:13;;;;;;;;;;;5.80;83.70;;;;;;5041701;28;19909;-73
2022/02/07 15:11:38;;;;;;;;;;;5.70;84.10;;;;;;5042882;28;19909;-73
2022/02/07 15:14:04;;;;;;;;;;;5.70;84.30;;;;;;5043071;28;19972;-72
2022/02/07 15:16:30;;;;;;;;;;;5.70;83.90;;;;;;5025259;28;19916;-73
2022/02/07 15:18:55;;;;;;;;;;;5.60;84.20;;;;;;5043101;28;19913;-74
2022/02/07 15:21:22;;;;;;;;;;;5.60;83.10;;;;;;5042879;28;19963;-73
2022/02/07 15:23:51;;;;;;;;;;;5.60;82.70;;;;;;5042888;28;19931;-73
2022/02/07 15:26:22;;;;;;;;;;;5.50;82.80;;;;;;4993637;28;19936;-73
2022/02/07 15:28:49;;;;;;;;;;;5.50;82.60;;;;;;5042959;28;19947;-73
2022/02/07 15:31:16;;;;;;;;;;;5.40;81.70;;;;;;4992191;28;19983;-72
2022/02/07 15:33:43;;;;;;;;;;;5.40;80.20;;;;;;4992805;28;19921;-72
2022/02/07 15:36:11;;;;;;;;;;;5.40;80.20;;;;;;5042135;28;20728;-72
2022/02/07 15:38:37;;;;;;;;;;;5.30;80.20;;;;;;5025034;28;20088;-73
2022/02/07 15:41:03;;;;;;;;;;;5.30;80.40;;;;;;5042410;28;19972;-71
2022/02/07 15:43:29;;;;;;;;;;;5.50;85.20;;;;;;5025071;28;20041;-71
2022/02/07 15:45:54;;;;;;;;;;;5.60;84.30;;;;;;5042244;28;19995;-71
2022/02/07 15:48:23;;;;;;;;;;;5.70;81.70;;;;;;5042540;28;19916;-71
2022/02/07 15:50:54;;;;;;;;;;;5.70;79.60;;;;;;5042355;28;20152;-71
2022/02/07 15:53:20;;;;;;;;;;;5.70;78.50;;;;;;5042387;28;19913;-70
2022/02/07 15:55:46;;;;;;;;;;;5.90;78.70;;;;;;5042576;28;19960;-73
2022/02/07 15:58:12;;;;;;;;;;;5.80;73.60;;;;;;5042500;28;19909;-73
2022/02/07 16:00:37;;;;;;;;;;;5.60;74.70;;;;;;5041924;28;19909;-72
2022/02/07 16:03:04;;;;;;;;;;;5.40;76.20;;;;;;5042769;28;19916;-73
2022/02/07 16:05:29;;;;;;;;;;;5.30;77.40;;;;;;5025372;28;19980;-73
2022/02/07 16:07:58;;;;;;;;;;;5.10;78.60;;;;;;5043254;28;19947;-73
2022/02/07 16:10:25;;;;;;;;;;;5.00;80.10;;;;;;5025122;28;19923;-73
2022/02/07 16:13:00;;;;;;;;;;;4.90;81.10;;;;;;5024749;28;20001;-73
2022/02/07 16:15:26;;;;;;;;;;;4.80;82.40;;;;;;5025846;28;19917;-73
2022/02/07 16:17:52;;;;;;;;;;;4.70;83.60;;;;;;5041986;28;19996;-73
2022/02/07 16:20:17;;;;;;;;;;;4.70;84.60;;;;;;5042204;28;19913;-73
2022/02/07 16:22:43;;;;;;;;;;;4.60;85.90;;;;;;5041822;28;19909;-73
2022/02/07 16:25:09;;;;;;;;;;;4.60;87.00;;;;;;5042828;28;20107;-73
2022/02/07 16:27:35;;;;;;;;;;;4.50;88.00;;;;;;5042681;28;19908;-73
2022/02/07 16:30:00;;;;;;;;;;;4.40;87.70;;;;;;5042641;28;19909;-73
2022/02/07 16:32:26;;;;;;;;;;;4.30;88.00;;;;;;5041488;28;19928;-73
2022/02/07 16:34:52;;;;;;;;;;;4.30;88.70;;;;;;5024915;28;19916;-73
2022/02/07 16:37:17;;;;;;;;;;;4.30;89.10;;;;;;5024682;28;19913;-73
2022/02/07 16:39:44;;;;;;;;;;;4.10;89.00;;;;;;5024912;28;20108;-73
2022/02/07 16:42:10;;;;;;;;;;;4.10;88.90;;;;;;5024256;28;20089;-75
2022/02/07 16:44:36;;;;;;;;;;;4.00;89.50;;;;;;5008197;28;19916;-74
2022/02/07 16:47:02;;;;;;;;;;;4.00;89.60;;;;;;5024486;28;20149;-73
2022/02/07 16:49:32;;;;;;;;;;;3.90;89.80;;;;;;4992170;28;20112;-73
2022/02/07 16:51:58;;;;;;;;;;;3.90;89.80;;;;;;5008913;28;19909;-73
2022/02/07 16:54:25;;;;;;;;;;;3.90;89.00;;;;;;5008358;28;19939;-73
2022/02/07 16:56:51;;;;;;;;;;;3.90;89.40;;;;;;5024694;28;19909;-69
2022/02/07 16:59:17;;;;;;;;;;;3.80;89.50;;;;;;5042174;28;20235;-73
2022/02/07 17:01:53;;;;;;;;;;;3.80;89.50;;;;;;5024241;28;19909;-72
2022/02/07 17:04:23;;;;;;;;;;;3.70;89.70;;;;;;5026124;28;19909;-73
2022/02/07 17:06:49;;;;;;;;;;;3.70;90.00;;;;;;5024753;28;19954;-73
2022/02/07 17:09:15;;;;;;;;;;;3.70;90.20;;;;;;5042224;28;20204;-73
2022/02/07 17:11:41;;;;;;;;;;;3.70;90.50;;;;;;5041856;28;19979;-72
2022/02/07 17:14:07;;;;;;;;;;;3.70;90.70;;;;;;5024639;28;19917;-72
2022/02/07 17:16:32;;;;;;;;;;;3.70;91.00;;;;;;5007998;28;19909;-72
2022/02/07 17:18:58;;;;;;;;;;;3.60;91.20;;;;;;5041463;28;19916;-73